createdAt,value
2019-05-17T00:01:20.754Z,99716.17
2019-05-17T00:03:53.011Z,99712.03
2019-05-17T00:06:27.458Z,99710.06
2019-05-17T00:08:58.719Z,99715.12
2019-05-17T00:11:32.137Z,99709.63
2019-05-17T00:14:06.172Z,99708.12
2019-05-17T00:16:39.150Z,99700.47
2019-05-17T00:19:11.309Z,99700.66
2019-05-17T00:21:43.044Z,99701.13
2019-05-17T00:24:18.317Z,99697.26
2019-05-17T00:26:52.281Z,99694.81
2019-05-17T00:29:26.442Z,99695.36
2019-05-17T00:31:59.463Z,99696.94
2019-05-17T00:34:32.575Z,99693.25
2019-05-17T00:37:06.823Z,99691.74
2019-05-17T00:39:38.214Z,99691.89
2019-05-17T00:42:10.094Z,99683.27
2019-05-17T00:44:41.905Z,99676.31
2019-05-17T00:47:13.800Z,99679.09
2019-05-17T00:49:46.447Z,99676.27
2019-05-17T00:52:19.107Z,99671.66
2019-05-17T00:54:52.095Z,99669.50
2019-05-17T00:57:23.822Z,99665.70
2019-05-17T00:59:56.512Z,99666.35
2019-05-17T01:02:28.822Z,99668.31
2019-05-17T01:05:00.026Z,99660.23
2019-05-17T01:07:29.332Z,99659.84
2019-05-17T01:10:01.126Z,99662.00
2019-05-17T01:12:32.879Z,99648.02
2019-05-17T01:15:07.315Z,99649.95
2019-05-17T01:17:38.791Z,99646.97
2019-05-17T01:20:11.904Z,99639.23
2019-05-17T01:22:43.958Z,99642.79
2019-05-17T01:25:17.137Z,99638.58
2019-05-17T01:27:47.476Z,99632.16
2019-05-17T01:30:19.713Z,99633.66
2019-05-17T01:32:51.479Z,99629.05
2019-05-17T01:35:23.315Z,99633.59
2019-05-17T01:37:56.464Z,99626.83
2019-05-17T01:40:28.414Z,99630.17
2019-05-17T01:43:00.418Z,99630.61
2019-05-17T01:45:32.173Z,99624.76
2019-05-17T01:48:03.932Z,99626.53
2019-05-17T01:50:37.335Z,99626.67
2019-05-17T01:53:09.338Z,99633.80
2019-05-17T01:55:41.114Z,99621.75
2019-05-17T01:58:12.848Z,99617.08
2019-05-17T02:00:46.549Z,99624.17
2019-05-17T02:03:18.095Z,99625.55
2019-05-17T02:05:50.318Z,99618.07
2019-05-17T02:08:22.015Z,99615.06
2019-05-17T02:10:53.709Z,99624.23
2019-05-17T02:13:26.766Z,99621.26
2019-05-17T02:15:58.657Z,99614.45
2019-05-17T02:18:30.474Z,99608.46
2019-05-17T02:21:03.488Z,99610.23
2019-05-17T02:23:37.251Z,99605.88
2019-05-17T02:26:08.881Z,99603.72
2019-05-17T02:28:41.458Z,99606.41
2019-05-17T02:31:14.055Z,99602.02
2019-05-17T02:33:47.224Z,99598.55
2019-05-17T02:36:22.608Z,99592.55
2019-05-17T02:38:53.325Z,99596.56
2019-05-17T02:41:25.109Z,99596.27
2019-05-17T02:43:57.057Z,99594.36
2019-05-17T02:46:29.501Z,99593.51
2019-05-17T02:49:08.170Z,99591.77
2019-05-17T02:51:43.111Z,99593.39
2019-05-17T02:54:15.208Z,99590.23
2019-05-17T02:56:47.349Z,99592.00
2019-05-17T02:59:19.619Z,99585.09
2019-05-17T03:01:52.663Z,99591.33
2019-05-17T03:04:24.720Z,99587.78
2019-05-17T03:06:57.619Z,99589.56
2019-05-17T03:09:29.414Z,99580.38
2019-05-17T03:12:03.313Z,99580.45
2019-05-17T03:14:35.173Z,99576.52
2019-05-17T03:17:06.850Z,99573.05
2019-05-17T03:19:39.165Z,99571.28
2019-05-17T03:22:13.117Z,99570.07
2019-05-17T03:24:45.013Z,99570.42
2019-05-17T03:27:17.121Z,99563.52
2019-05-17T03:29:48.829Z,99558.34
2019-05-17T03:32:26.422Z,99567.13
2019-05-17T03:34:56.717Z,99560.64
2019-05-17T03:37:37.243Z,99568.97
2019-05-17T03:40:23.523Z,99566.45
2019-05-17T03:42:43.090Z,99571.69
2019-05-17T03:45:15.085Z,99570.84
2019-05-17T03:47:46.832Z,99572.78
2019-05-17T03:50:22.489Z,99574.69
2019-05-17T03:52:53.820Z,99582.80
2019-05-17T03:55:25.501Z,99573.93
2019-05-17T03:57:58.415Z,99577.64
2019-05-17T04:00:30.112Z,99572.56
2019-05-17T04:03:03.032Z,99576.95
2019-05-17T04:05:35.113Z,99575.19
2019-05-17T04:08:06.997Z,99573.87
2019-05-17T04:10:42.386Z,99576.33
2019-05-17T04:13:13.327Z,99576.02
2019-05-17T04:15:45.381Z,99571.78
2019-05-17T04:18:17.974Z,99567.16
2019-05-17T04:20:52.551Z,99568.75
2019-05-17T04:23:23.480Z,99572.46
2019-05-17T04:25:55.775Z,99577.02
2019-05-17T04:28:27.792Z,99582.63
2019-05-17T04:31:02.556Z,99582.09
2019-05-17T04:33:33.893Z,99583.27
2019-05-17T04:36:05.796Z,99583.55
2019-05-17T04:38:37.463Z,99584.34
2019-05-17T04:41:13.092Z,99583.48
2019-05-17T04:43:43.215Z,99581.78
2019-05-17T04:46:15.128Z,99578.25
2019-05-17T04:48:46.934Z,99574.14
2019-05-17T04:51:18.700Z,99578.29
2019-05-17T04:53:52.998Z,99581.63
2019-05-17T04:56:24.678Z,99584.14
2019-05-17T04:58:56.481Z,99583.22
2019-05-17T05:01:28.360Z,99584.85
2019-05-17T05:04:03.103Z,99581.20
2019-05-17T05:06:37.971Z,99575.50
2019-05-17T05:09:12.455Z,99581.52
2019-05-17T05:11:56.172Z,99584.44
2019-05-17T05:14:17.288Z,99580.81
2019-05-17T05:16:49.016Z,99575.01
2019-05-17T05:19:22.334Z,99574.02
2019-05-17T05:21:54.290Z,99572.17
2019-05-17T05:24:25.998Z,99570.69
2019-05-17T05:26:58.326Z,99571.92
2019-05-17T05:29:32.113Z,99567.35
2019-05-17T05:32:03.719Z,99567.17
2019-05-17T05:34:35.476Z,99560.76
2019-05-17T05:37:07.415Z,99566.53
2019-05-17T05:39:41.293Z,99560.59
2019-05-17T05:42:14.063Z,99560.27
2019-05-17T05:44:46.050Z,99560.55
2019-05-17T05:47:17.889Z,99564.16
2019-05-17T05:49:51.910Z,99564.67
2019-05-17T05:52:23.534Z,99563.42
2019-05-17T05:54:55.431Z,99568.22
2019-05-17T05:57:27.782Z,99564.72
2019-05-17T06:00:02.023Z,99563.34
2019-05-17T06:02:33.066Z,99559.73
2019-05-17T06:05:05.300Z,99563.98
2019-05-17T06:07:37.224Z,99559.55
2019-05-17T06:10:12.608Z,99557.30
2019-05-17T06:12:44.499Z,99558.54
2019-05-17T06:15:17.143Z,99555.02
2019-05-17T06:17:48.823Z,99557.02
2019-05-17T06:20:22.439Z,99558.19
2019-05-17T06:22:54.420Z,99549.38
2019-05-17T06:25:26.407Z,99542.61
2019-05-17T06:28:01.702Z,99542.61
2019-05-17T06:30:33.600Z,99541.81
2019-05-17T06:33:05.400Z,99533.50
2019-05-17T06:35:37.142Z,99534.80
2019-05-17T06:38:08.997Z,99534.95
2019-05-17T06:40:42.016Z,99531.18
2019-05-17T06:43:14.827Z,99526.33
2019-05-17T06:45:46.600Z,99523.66
2019-05-17T06:48:19.486Z,99525.60
2019-05-17T06:50:52.067Z,99524.70
2019-05-17T06:53:23.929Z,99522.52
2019-05-17T06:55:55.673Z,99526.59
2019-05-17T06:58:28.116Z,99524.30
2019-05-17T07:01:00.067Z,99523.17
2019-05-17T07:03:31.863Z,99526.21
2019-05-17T07:06:05.446Z,99529.66
2019-05-17T07:08:37.218Z,99526.29
2019-05-17T07:11:09.775Z,99520.18
2019-05-17T07:13:42.589Z,99525.14
2019-05-17T07:16:14.430Z,99514.86
2019-05-17T07:18:46.229Z,99505.02
2019-05-17T07:21:20.393Z,99507.58
2019-05-17T07:23:52.056Z,99498.47
2019-05-17T07:26:23.791Z,99499.70
2019-05-17T07:28:56.197Z,99489.08
2019-05-17T07:31:29.791Z,99493.90
2019-05-17T07:34:01.453Z,99483.93
2019-05-17T07:36:33.329Z,99477.89
2019-05-17T07:39:05.868Z,99479.80
2019-05-17T07:41:39.930Z,99468.47
2019-05-17T07:44:13.330Z,99466.66
2019-05-17T07:46:46.527Z,99466.76
2019-05-17T07:49:20.039Z,99461.70
2019-05-17T07:51:51.876Z,99460.48
2019-05-17T07:54:23.682Z,99458.56
2019-05-17T07:56:55.528Z,99447.50
2019-05-17T07:59:29.342Z,99447.03
2019-05-17T08:02:01.573Z,99447.73
2019-05-17T08:04:34.251Z,99439.20
2019-05-17T08:07:07.621Z,99434.55
2019-05-17T08:09:41.726Z,99430.92
2019-05-17T08:12:13.671Z,99430.44
2019-05-17T08:14:45.436Z,99430.58
2019-05-17T08:17:19.989Z,99431.16
2019-05-17T08:19:51.821Z,99428.03
2019-05-17T08:22:24.178Z,99419.83
2019-05-17T08:24:56.565Z,99418.39
2019-05-17T08:27:29.718Z,99417.54
2019-05-17T08:30:01.829Z,99406.92
2019-05-17T08:32:33.747Z,99409.31
2019-05-17T08:35:05.617Z,99409.30
2019-05-17T08:37:57.115Z,99409.52
2019-05-17T08:40:30.562Z,99405.25
2019-05-17T08:43:02.543Z,99408.75
2019-05-17T08:45:34.419Z,99396.81
2019-05-17T08:48:09.571Z,99404.29
2019-05-17T08:50:41.859Z,99401.84
2019-05-17T08:53:14.482Z,99401.73
2019-05-17T08:55:46.405Z,99398.72
2019-05-17T08:58:21.536Z,99387.03
2019-05-17T09:00:53.414Z,99392.33
2019-05-17T09:03:25.275Z,99390.25
2019-05-17T09:05:57.096Z,99386.76
2019-05-17T09:08:29.855Z,99379.66
2019-05-17T09:11:01.723Z,99383.00
2019-05-17T09:13:33.932Z,99380.12
2019-05-17T09:16:05.814Z,99375.59
2019-05-17T09:18:39.464Z,99372.88
2019-05-17T09:21:11.269Z,99369.91
2019-05-17T09:23:44.004Z,99366.67
2019-05-17T09:26:15.922Z,99369.84
2019-05-17T09:28:49.809Z,99364.08
2019-05-17T09:31:21.120Z,99364.09
2019-05-17T09:33:52.863Z,99360.55
2019-05-17T09:36:24.573Z,99360.00
2019-05-17T09:38:57.017Z,99354.08
2019-05-17T09:41:29.374Z,99360.48
2019-05-17T09:44:11.673Z,99348.89
2019-05-17T09:46:35.326Z,99351.91
2019-05-17T09:49:10.179Z,99351.14
2019-05-17T09:51:40.983Z,99353.37
2019-05-17T09:54:13.763Z,99345.22
2019-05-17T09:56:45.711Z,99338.72
2019-05-17T09:59:17.705Z,99338.27
2019-05-17T10:01:49.597Z,99336.38
2019-05-17T10:04:21.521Z,99325.75
2019-05-17T10:06:53.352Z,99325.43
2019-05-17T10:09:25.811Z,99339.04
2019-05-17T10:11:59.886Z,99331.30
2019-05-17T10:14:31.491Z,99325.36
2019-05-17T10:17:03.737Z,99325.62
2019-05-17T10:19:35.494Z,99323.02
2019-05-17T10:22:10.178Z,99315.48
2019-05-17T10:24:42.653Z,99313.24
2019-05-17T10:27:14.815Z,99310.16
2019-05-17T10:29:46.717Z,99309.50
2019-05-17T10:32:20.472Z,99310.21
2019-05-17T10:34:51.880Z,99312.09
2019-05-17T10:37:23.656Z,99310.55
2019-05-17T10:39:55.393Z,99301.29
2019-05-17T10:42:30.560Z,99297.92
2019-05-17T10:45:03.198Z,99304.25
2019-05-17T10:47:34.938Z,99293.75
2019-05-17T10:50:06.753Z,99291.92
2019-05-17T10:52:40.890Z,99287.98
2019-05-17T10:55:12.576Z,99290.57
2019-05-17T10:57:45.182Z,99294.78
2019-05-17T11:00:19.692Z,99289.70
2019-05-17T11:02:51.672Z,99290.59
2019-05-17T11:05:23.974Z,99284.86
2019-05-17T11:07:55.767Z,99278.60
2019-05-17T11:10:28.037Z,99279.66
2019-05-17T11:13:00.998Z,99280.20
2019-05-17T11:15:32.970Z,99274.43
2019-05-17T11:18:04.753Z,99268.34
2019-05-17T11:20:37.402Z,99270.34
2019-05-17T11:23:09.557Z,99272.38
2019-05-17T11:25:45.875Z,99271.58
2019-05-17T11:28:16.012Z,99266.61
2019-05-17T11:30:48.338Z,99266.47
2019-05-17T11:33:20.287Z,99261.81
2019-05-17T11:35:52.519Z,99258.17
2019-05-17T11:38:24.311Z,99260.20
2019-05-17T11:40:56.162Z,99264.38
2019-05-17T11:43:28.582Z,99267.39
2019-05-17T11:46:00.629Z,99258.78
2019-05-17T11:48:32.496Z,99260.64
2019-05-17T11:51:04.569Z,99260.68
2019-05-17T11:53:36.374Z,99259.07
2019-05-17T11:56:08.105Z,99255.95
2019-05-17T11:58:40.495Z,99266.95
2019-05-17T12:01:12.366Z,99258.48
2019-05-17T12:03:44.217Z,99254.48
2019-05-17T12:06:16.457Z,99249.19
2019-05-17T12:08:48.343Z,99248.94
2019-05-17T12:11:20.463Z,99254.30
2019-05-17T12:13:52.792Z,99245.72
2019-05-17T12:16:24.834Z,99241.75
2019-05-17T12:18:56.772Z,99248.63
2019-05-17T12:21:28.503Z,99242.83
2019-05-17T12:24:00.631Z,99241.36
2019-05-17T12:26:33.465Z,99242.05
2019-05-17T12:29:06.248Z,99247.20
2019-05-17T12:31:37.996Z,99236.61
2019-05-17T12:34:09.888Z,99234.49
2019-05-17T12:36:41.659Z,99236.75
2019-05-17T12:39:13.893Z,99241.30
2019-05-17T12:41:46.474Z,99238.71
2019-05-17T12:44:19.226Z,99232.09
2019-05-17T12:46:51.794Z,99229.34
2019-05-17T12:49:23.891Z,99231.30
2019-05-17T12:51:56.011Z,99227.38
2019-05-17T12:54:27.972Z,99231.97
2019-05-17T12:57:00.200Z,99225.02
2019-05-17T12:59:33.202Z,99216.37
2019-05-17T13:02:05.649Z,99223.41
2019-05-17T13:04:37.817Z,99221.16
2019-05-17T13:07:10.055Z,99214.69
2019-05-17T13:09:41.939Z,99218.88
2019-05-17T13:12:14.065Z,99217.70
2019-05-17T13:14:46.566Z,99210.03
2019-05-17T13:17:18.641Z,99209.37
2019-05-17T13:19:50.731Z,99203.88
2019-05-17T13:22:22.704Z,99205.03
2019-05-17T13:24:54.877Z,99208.88
2019-05-17T13:27:26.696Z,99207.89
2019-05-17T13:29:59.245Z,99206.86
2019-05-17T13:32:31.085Z,99209.72
2019-05-17T13:35:04.222Z,99202.05
2019-05-17T13:37:35.919Z,99203.03
2019-05-17T13:40:07.956Z,99197.52
2019-05-17T13:42:41.463Z,99196.02
2019-05-17T13:45:14.398Z,99194.88
2019-05-17T13:47:46.103Z,99190.17
2019-05-17T13:50:20.964Z,99189.67
2019-05-17T13:52:52.747Z,99191.73
2019-05-17T13:55:24.594Z,99193.73
2019-05-17T13:57:57.879Z,99186.37
2019-05-17T14:00:30.540Z,99186.35
2019-05-17T14:03:02.301Z,99182.17
2019-05-17T14:05:34.065Z,99182.33
2019-05-17T14:08:05.890Z,99187.17
2019-05-17T14:10:37.756Z,99182.31
2019-05-17T14:13:09.485Z,99181.62
2019-05-17T14:15:41.457Z,99181.25
2019-05-17T14:18:14.123Z,99183.63
2019-05-17T14:20:46.146Z,99178.11
2019-05-17T14:23:17.907Z,99179.61
2019-05-17T14:25:50.082Z,99176.10
2019-05-17T14:28:21.851Z,99175.58
2019-05-17T14:30:53.542Z,99172.72
2019-05-17T14:33:25.694Z,99172.70
2019-05-17T14:35:57.780Z,99176.69
2019-05-17T14:38:29.728Z,99174.02
2019-05-17T14:41:06.735Z,99176.05
2019-05-17T14:43:34.987Z,99173.03
2019-05-17T14:46:06.717Z,99175.72
2019-05-17T14:48:39.015Z,99172.55
2019-05-17T14:51:10.722Z,99168.23
2019-05-17T14:53:44.068Z,99168.05
2019-05-17T14:56:15.843Z,99176.75
2019-05-17T14:58:47.908Z,99175.60
2019-05-17T15:01:19.661Z,99172.91
2019-05-17T15:03:51.800Z,99170.06
2019-05-17T15:06:23.584Z,99168.38
2019-05-17T15:08:55.415Z,99172.59
2019-05-17T15:11:27.145Z,99166.73
2019-05-17T15:13:58.931Z,99170.92
2019-05-17T15:16:30.722Z,99175.11
2019-05-17T15:19:03.247Z,99170.30
2019-05-17T15:21:34.955Z,99165.78
2019-05-17T15:24:06.718Z,99170.30
2019-05-17T15:26:38.892Z,99172.98
2019-05-17T15:29:11.013Z,99168.83
2019-05-17T15:31:42.921Z,99169.98
2019-05-17T15:34:15.239Z,99171.16
2019-05-17T15:36:47.337Z,99171.83
2019-05-17T15:39:19.463Z,99170.48
2019-05-17T15:41:51.238Z,99165.44
2019-05-17T15:44:23.002Z,99164.59
2019-05-17T15:46:54.707Z,99167.44
2019-05-17T15:49:26.907Z,99154.08
2019-05-17T15:51:58.744Z,99160.75
2019-05-17T15:54:30.458Z,99157.22
2019-05-17T15:57:02.308Z,99152.05
2019-05-17T15:59:34.024Z,99152.38
2019-05-17T16:02:05.902Z,99149.35
2019-05-17T16:04:38.534Z,99145.67
2019-05-17T16:07:10.618Z,99149.50
2019-05-17T16:09:42.553Z,99149.00
2019-05-17T16:12:14.261Z,99141.14
2019-05-17T16:14:45.931Z,99143.66
2019-05-17T16:17:17.654Z,99142.96
2019-05-17T16:19:49.740Z,99137.95
2019-05-17T16:22:21.510Z,99138.28
2019-05-17T16:24:53.274Z,99137.09
2019-05-17T16:27:25.074Z,99140.63
2019-05-17T16:29:56.879Z,99140.63
2019-05-17T16:32:28.635Z,99139.47
2019-05-17T16:35:00.872Z,99134.93
2019-05-17T16:37:32.512Z,99136.41
2019-05-17T16:40:04.757Z,99132.25
2019-05-17T16:42:36.474Z,99143.14
2019-05-17T16:45:09.965Z,99137.45
2019-05-17T16:47:41.722Z,99142.96
2019-05-17T16:50:14.744Z,99143.30
2019-05-17T16:52:46.415Z,99136.12
2019-05-17T16:55:18.382Z,99140.03
2019-05-17T16:57:50.169Z,99135.35
2019-05-17T17:00:37.010Z,99133.55
2019-05-17T17:03:10.236Z,99136.73
2019-05-17T17:05:42.087Z,99135.90
2019-05-17T17:08:18.277Z,99136.56
2019-05-17T17:10:49.994Z,99138.38
2019-05-17T17:13:32.837Z,99143.73
2019-05-17T17:15:55.670Z,99142.39
2019-05-17T17:18:27.491Z,99145.26
2019-05-17T17:20:59.388Z,99148.92
2019-05-17T17:23:31.130Z,99147.61
2019-05-17T17:26:03.208Z,99142.73
2019-05-17T17:28:34.975Z,99148.59
2019-05-17T17:31:08.803Z,99155.25
2019-05-17T17:33:40.568Z,99155.76
2019-05-17T17:36:12.446Z,99156.42
2019-05-17T17:38:44.171Z,99158.95
2019-05-17T17:41:15.990Z,99160.75
2019-05-17T17:43:58.113Z,99159.92
2019-05-17T17:46:21.349Z,99166.91
2019-05-17T17:48:53.472Z,99159.23
2019-05-17T17:51:25.665Z,99162.68
2019-05-17T17:53:57.358Z,99164.66
2019-05-17T17:56:29.263Z,99167.27
2019-05-17T17:59:00.973Z,99163.41
2019-05-17T18:01:32.703Z,99174.16
2019-05-17T18:04:04.530Z,99173.66
2019-05-17T18:06:36.471Z,99170.02
2019-05-17T18:09:13.842Z,99172.58
2019-05-17T18:11:45.768Z,99176.16
2019-05-17T18:14:17.548Z,99172.42
2019-05-17T18:16:49.334Z,99174.22
2019-05-17T18:19:21.425Z,99173.81
2019-05-17T18:21:53.472Z,99175.26
2019-05-17T18:24:25.524Z,99166.75
2019-05-17T18:26:57.303Z,99171.03
2019-05-17T18:29:29.227Z,99172.68
2019-05-17T18:32:01.016Z,99167.95
2019-05-17T18:34:32.975Z,99166.59
2019-05-17T18:37:04.742Z,99166.88
2019-05-17T18:39:36.652Z,99168.53
2019-05-17T18:42:08.372Z,99170.14
2019-05-17T18:44:40.152Z,99172.73
2019-05-17T18:47:11.924Z,99168.64
2019-05-17T18:49:43.711Z,99176.24
2019-05-17T18:52:15.536Z,99174.59
2019-05-17T18:54:47.451Z,99177.39
2019-05-17T18:57:19.322Z,99181.53
2019-05-17T18:59:51.249Z,99180.20
2019-05-17T19:02:23.104Z,99180.69
2019-05-17T19:04:55.454Z,99185.17
2019-05-17T19:07:27.661Z,99187.44
2019-05-17T19:09:59.685Z,99190.16
2019-05-17T19:12:31.546Z,99198.03
2019-05-17T19:15:03.282Z,99195.25
2019-05-17T19:17:38.024Z,99198.36
2019-05-17T19:20:10.304Z,99199.95
2019-05-17T19:22:42.052Z,99212.49
2019-05-17T19:25:16.023Z,99211.44
2019-05-17T19:27:48.143Z,99214.88
2019-05-17T19:30:20.230Z,99221.13
2019-05-17T19:32:52.076Z,99222.05
2019-05-17T19:35:23.862Z,99229.98
2019-05-17T19:37:55.860Z,99234.95
2019-05-17T19:40:28.366Z,99244.68
2019-05-17T19:43:00.246Z,99240.96
2019-05-17T19:45:32.075Z,99252.52
2019-05-17T19:48:03.972Z,99245.76
2019-05-17T19:50:35.797Z,99254.26
2019-05-17T19:53:07.601Z,99257.96
2019-05-17T19:55:39.710Z,99263.28
2019-05-17T19:58:11.564Z,99263.00
2019-05-17T20:00:43.946Z,99266.02
2019-05-17T20:03:15.942Z,99263.22
2019-05-17T20:05:47.826Z,99265.23
2019-05-17T20:08:20.017Z,99272.90
2019-05-17T20:10:52.359Z,99269.94
2019-05-17T20:13:24.116Z,99271.13
2019-05-17T20:15:56.227Z,99273.00
2019-05-17T20:18:28.018Z,99278.72
2019-05-17T20:20:59.858Z,99282.34
2019-05-17T20:23:31.692Z,99284.77
2019-05-17T20:26:03.944Z,99284.17
2019-05-17T20:28:35.838Z,99282.08
2019-05-17T20:31:07.881Z,99282.62
2019-05-17T20:33:39.886Z,99281.82
2019-05-17T20:36:12.081Z,99286.94
2019-05-17T20:38:43.846Z,99286.30
2019-05-17T20:41:15.764Z,99292.97
2019-05-17T20:43:47.520Z,99290.44
2019-05-17T20:46:19.736Z,99295.30
2019-05-17T20:48:51.542Z,99294.02
2019-05-17T20:51:23.346Z,99293.92
2019-05-17T20:53:55.453Z,99297.34
2019-05-17T20:56:33.063Z,99300.02
2019-05-17T20:59:00.804Z,99301.02
2019-05-17T21:01:32.729Z,99292.26
2019-05-17T21:04:04.501Z,99301.66
2019-05-17T21:06:36.456Z,99300.00
2019-05-17T21:09:08.998Z,99300.84
2019-05-17T21:11:40.918Z,99305.03
2019-05-17T21:14:12.763Z,99301.53
2019-05-17T21:16:44.578Z,99299.52
2019-05-17T21:19:16.559Z,99295.94
2019-05-17T21:21:48.291Z,99300.03
2019-05-17T21:24:20.129Z,99297.98
2019-05-17T21:26:52.423Z,99300.63
2019-05-17T21:29:24.422Z,99298.61
2019-05-17T21:31:56.213Z,99299.21
2019-05-17T21:34:27.991Z,99300.91
2019-05-17T21:36:59.771Z,99294.64
2019-05-17T21:39:32.251Z,99300.99
2019-05-17T21:42:05.305Z,99301.11
2019-05-17T21:44:37.301Z,99299.78
2019-05-17T21:47:09.364Z,99301.59
2019-05-17T21:49:41.529Z,99305.56
2019-05-17T21:52:13.346Z,99302.14
2019-05-17T21:54:45.090Z,99305.77
2019-05-17T21:58:21.315Z,99304.59
2019-05-17T22:01:20.207Z,99303.92
2019-05-17T22:03:52.101Z,99299.33
2019-05-17T22:06:24.356Z,99299.72
2019-05-17T22:08:56.433Z,99303.09
2019-05-17T22:11:28.141Z,99301.89
2019-05-17T22:14:00.021Z,99302.48
2019-05-17T22:16:31.765Z,99308.77
2019-05-17T22:19:03.714Z,99313.59
2019-05-17T22:21:35.557Z,99315.87
2019-05-17T22:24:07.302Z,99318.64
2019-05-17T22:26:39.090Z,99318.91
2019-05-17T22:29:10.921Z,99312.52
2019-05-17T22:31:42.744Z,99316.14
2019-05-17T22:34:14.992Z,99318.69
2019-05-17T22:36:46.714Z,99314.98
2019-05-17T22:39:18.526Z,99307.63
2019-05-17T22:41:50.370Z,99306.56
2019-05-17T22:44:22.308Z,99308.00
2019-05-17T22:46:54.054Z,99307.06
2019-05-17T22:49:25.919Z,99305.63
2019-05-17T22:51:58.216Z,99304.54
2019-05-17T22:54:30.121Z,99307.30
2019-05-17T22:57:02.049Z,99309.09
2019-05-17T22:59:34.408Z,99304.77
2019-05-17T23:02:06.250Z,99304.88
2019-05-17T23:04:38.327Z,99304.03
2019-05-17T23:07:10.126Z,99313.30
2019-05-17T23:09:42.253Z,99317.05
2019-05-17T23:12:14.226Z,99312.83
2019-05-17T23:14:46.619Z,99312.72
2019-05-17T23:17:18.401Z,99317.76
2019-05-17T23:19:50.096Z,99311.99
2019-05-17T23:22:21.979Z,99308.54
2019-05-17T23:24:53.890Z,99314.53
2019-05-17T23:27:26.038Z,99321.40
2019-05-17T23:29:57.792Z,99319.34
2019-05-17T23:32:42.587Z,99318.87
2019-05-17T23:35:12.251Z,99317.43
2019-05-17T23:37:44.393Z,99323.20
2019-05-17T23:40:16.314Z,99321.88
2019-05-17T23:42:47.990Z,99319.23
2019-05-17T23:45:19.771Z,99321.98
2019-05-17T23:47:53.057Z,99329.44
2019-05-17T23:50:25.130Z,99328.01
2019-05-17T23:52:57.542Z,99329.44
2019-05-17T23:55:29.463Z,99321.50
2019-05-17T23:58:01.576Z,99321.28
